sensor_id;sensor_type;location;lat;lon;timestamp;P1;durP1;ratioP1;P2;durP2;ratioP2
61907;SDS011;47864;52.526;19.672;2023-03-01T00:01:36;212.07;;;92.63;;
61907;SDS011;47864;52.526;19.672;2023-03-01T00:03:38;204.60;;;91.50;;
61907;SDS011;47864;52.526;19.672;2023-03-01T00:05:46;201.60;;;91.50;;
61907;SDS011;47864;52.526;19.672;2023-03-01T00:07:51;233.20;;;103.65;;
61907;SDS011;47864;52.526;19.672;2023-03-01T00:09:53;244.25;;;111.57;;
61907;SDS011;47864;52.526;19.672;2023-03-01T00:11:55;225.60;;;98.05;;
61907;SDS011;47864;52.526;19.672;2023-03-01T00:13:58;223.82;;;100.70;;
61907;SDS011;47864;52.526;19.672;2023-03-01T00:16:02;189.73;;;85.72;;
61907;SDS011;47864;52.526;19.672;2023-03-01T00:18:04;204.48;;;96.03;;
61907;SDS011;47864;52.526;19.672;2023-03-01T00:20:06;200.00;;;93.68;;
61907;SDS011;47864;52.526;19.672;2023-03-01T00:22:08;190.52;;;87.50;;
61907;SDS011;47864;52.526;19.672;2023-03-01T00:24:10;157.07;;;71.80;;
61907;SDS011;47864;52.526;19.672;2023-03-01T00:26:13;185.15;;;84.97;;
61907;SDS011;47864;52.526;19.672;2023-03-01T00:28:15;179.38;;;80.85;;
61907;SDS011;47864;52.526;19.672;2023-03-01T00:30:16;166.82;;;77.38;;
61907;SDS011;47864;52.526;19.672;2023-03-01T00:32:18;113.38;;;58.63;;
61907;SDS011;47864;52.526;19.672;2023-03-01T00:34:20;110.22;;;54.75;;
61907;SDS011;47864;52.526;19.672;2023-03-01T00:36:21;97.10;;;48.88;;
61907;SDS011;47864;52.526;19.672;2023-03-01T00:38:23;90.95;;;44.80;;
61907;SDS011;47864;52.526;19.672;2023-03-01T00:40:25;92.22;;;45.58;;
61907;SDS011;47864;52.526;19.672;2023-03-01T00:42:27;98.65;;;45.58;;
61907;SDS011;47864;52.526;19.672;2023-03-01T00:44:29;80.95;;;43.78;;
61907;SDS011;47864;52.526;19.672;2023-03-01T00:46:30;83.80;;;43.55;;
61907;SDS011;47864;52.526;19.672;2023-03-01T00:48:33;80.17;;;42.70;;
61907;SDS011;47864;52.526;19.672;2023-03-01T00:50:35;73.15;;;41.10;;
61907;SDS011;47864;52.526;19.672;2023-03-01T00:52:37;80.55;;;44.67;;
61907;SDS011;47864;52.526;19.672;2023-03-01T00:54:39;77.93;;;42.85;;
61907;SDS011;47864;52.526;19.672;2023-03-01T00:56:40;74.90;;;38.40;;
61907;SDS011;47864;52.526;19.672;2023-03-01T00:58:42;79.35;;;41.05;;
61907;SDS011;47864;52.526;19.672;2023-03-01T01:00:43;84.10;;;44.00;;
61907;SDS011;47864;52.526;19.672;2023-03-01T01:02:45;76.22;;;41.40;;
61907;SDS011;47864;52.526;19.672;2023-03-01T01:04:47;80.03;;;40.55;;
61907;SDS011;47864;52.526;19.672;2023-03-01T01:06:48;68.57;;;36.72;;
61907;SDS011;47864;52.526;19.672;2023-03-01T01:08:50;66.43;;;34.33;;
61907;SDS011;47864;52.526;19.672;2023-03-01T01:10:53;67.03;;;35.97;;
61907;SDS011;47864;52.526;19.672;2023-03-01T01:12:54;71.30;;;35.83;;
61907;SDS011;47864;52.526;19.672;2023-03-01T01:14:56;70.53;;;37.30;;
61907;SDS011;47864;52.526;19.672;2023-03-01T01:16:57;79.05;;;41.28;;
61907;SDS011;47864;52.526;19.672;2023-03-01T01:18:59;84.25;;;43.45;;
61907;SDS011;47864;52.526;19.672;2023-03-01T01:21:07;74.72;;;39.22;;
61907;SDS011;47864;52.526;19.672;2023-03-01T01:23:11;70.20;;;35.88;;
61907;SDS011;47864;52.526;19.672;2023-03-01T01:25:13;67.20;;;38.03;;
61907;SDS011;47864;52.526;19.672;2023-03-01T01:27:14;66.85;;;37.20;;
61907;SDS011;47864;52.526;19.672;2023-03-01T01:29:16;73.25;;;39.35;;
61907;SDS011;47864;52.526;19.672;2023-03-01T01:31:18;72.60;;;39.88;;
61907;SDS011;47864;52.526;19.672;2023-03-01T01:33:20;77.97;;;40.20;;
61907;SDS011;47864;52.526;19.672;2023-03-01T01:35:22;80.07;;;41.45;;
61907;SDS011;47864;52.526;19.672;2023-03-01T01:37:23;84.63;;;43.22;;
61907;SDS011;47864;52.526;19.672;2023-03-01T01:39:25;91.35;;;44.40;;
61907;SDS011;47864;52.526;19.672;2023-03-01T01:41:27;97.80;;;45.97;;
61907;SDS011;47864;52.526;19.672;2023-03-01T01:43:31;99.28;;;49.85;;
61907;SDS011;47864;52.526;19.672;2023-03-01T01:45:35;97.47;;;45.75;;
61907;SDS011;47864;52.526;19.672;2023-03-01T01:47:37;107.40;;;49.88;;
61907;SDS011;47864;52.526;19.672;2023-03-01T01:49:52;99.63;;;46.75;;
61907;SDS011;47864;52.526;19.672;2023-03-01T01:52:39;100.32;;;48.75;;
61907;SDS011;47864;52.526;19.672;2023-03-01T01:54:25;103.15;;;50.20;;
61907;SDS011;47864;52.526;19.672;2023-03-01T01:57:02;96.18;;;47.75;;
61907;SDS011;47864;52.526;19.672;2023-03-01T01:59:08;98.47;;;48.38;;
61907;SDS011;47864;52.526;19.672;2023-03-01T02:01:10;90.40;;;46.05;;
61907;SDS011;47864;52.526;19.672;2023-03-01T02:03:14;101.95;;;50.72;;
61907;SDS011;47864;52.526;19.672;2023-03-01T02:07:38;127.70;;;62.42;;
61907;SDS011;47864;52.526;19.672;2023-03-01T02:09:45;171.77;;;79.40;;
61907;SDS011;47864;52.526;19.672;2023-03-01T02:11:48;152.43;;;71.53;;
61907;SDS011;47864;52.526;19.672;2023-03-01T02:13:52;118.15;;;59.90;;
61907;SDS011;47864;52.526;19.672;2023-03-01T02:15:55;92.45;;;46.42;;
61907;SDS011;47864;52.526;19.672;2023-03-01T02:17:57;102.82;;;54.10;;
61907;SDS011;47864;52.526;19.672;2023-03-01T02:22:25;95.10;;;48.47;;
61907;SDS011;47864;52.526;19.672;2023-03-01T02:26:55;94.07;;;46.63;;
61907;SDS011;47864;52.526;19.672;2023-03-01T02:28:57;89.90;;;45.25;;
61907;SDS011;47864;52.526;19.672;2023-03-01T02:30:59;82.63;;;42.05;;
61907;SDS011;47864;52.526;19.672;2023-03-01T02:33:03;91.90;;;44.35;;
61907;SDS011;47864;52.526;19.672;2023-03-01T02:35:05;80.38;;;42.72;;
61907;SDS011;47864;52.526;19.672;2023-03-01T02:37:13;110.72;;;54.45;;
61907;SDS011;47864;52.526;19.672;2023-03-01T02:39:18;87.22;;;45.92;;
61907;SDS011;47864;52.526;19.672;2023-03-01T02:41:23;87.40;;;45.72;;
61907;SDS011;47864;52.526;19.672;2023-03-01T02:43:28;99.15;;;51.15;;
61907;SDS011;47864;52.526;19.672;2023-03-01T02:45:32;111.40;;;52.08;;
61907;SDS011;47864;52.526;19.672;2023-03-01T02:47:33;130.45;;;55.95;;
61907;SDS011;47864;52.526;19.672;2023-03-01T02:49:36;134.65;;;57.70;;
61907;SDS011;47864;52.526;19.672;2023-03-01T02:51:43;124.95;;;56.13;;
61907;SDS011;47864;52.526;19.672;2023-03-01T02:54:04;132.60;;;54.90;;
61907;SDS011;47864;52.526;19.672;2023-03-01T02:56:29;122.05;;;55.22;;
61907;SDS011;47864;52.526;19.672;2023-03-01T02:58:31;126.18;;;54.13;;
61907;SDS011;47864;52.526;19.672;2023-03-01T03:00:37;117.32;;;53.40;;
61907;SDS011;47864;52.526;19.672;2023-03-01T03:02:41;114.93;;;53.50;;
61907;SDS011;47864;52.526;19.672;2023-03-01T03:04:43;115.75;;;53.53;;
61907;SDS011;47864;52.526;19.672;2023-03-01T03:06:45;123.45;;;52.63;;
61907;SDS011;47864;52.526;19.672;2023-03-01T03:08:47;101.78;;;49.25;;
61907;SDS011;47864;52.526;19.672;2023-03-01T03:10:48;104.93;;;49.03;;
61907;SDS011;47864;52.526;19.672;2023-03-01T03:12:51;102.90;;;48.88;;
61907;SDS011;47864;52.526;19.672;2023-03-01T03:14:57;107.57;;;49.85;;
61907;SDS011;47864;52.526;19.672;2023-03-01T03:16:58;99.20;;;47.65;;
61907;SDS011;47864;52.526;19.672;2023-03-01T03:19:00;99.63;;;47.95;;
61907;SDS011;47864;52.526;19.672;2023-03-01T03:21:02;106.10;;;54.60;;
61907;SDS011;47864;52.526;19.672;2023-03-01T03:23:03;113.45;;;54.45;;
61907;SDS011;47864;52.526;19.672;2023-03-01T03:25:06;102.90;;;50.15;;
61907;SDS011;47864;52.526;19.672;2023-03-01T03:27:08;115.53;;;51.80;;
61907;SDS011;47864;52.526;19.672;2023-03-01T03:29:09;112.07;;;51.45;;
61907;SDS011;47864;52.526;19.672;2023-03-01T03:31:11;110.70;;;50.30;;
61907;SDS011;47864;52.526;19.672;2023-03-01T03:33:12;122.60;;;53.50;;
61907;SDS011;47864;52.526;19.672;2023-03-01T03:35:14;123.47;;;55.22;;
61907;SDS011;47864;52.526;19.672;2023-03-01T03:37:16;116.28;;;51.97;;
61907;SDS011;47864;52.526;19.672;2023-03-01T03:39:17;107.57;;;49.53;;
61907;SDS011;47864;52.526;19.672;2023-03-01T03:41:20;107.90;;;51.45;;
61907;SDS011;47864;52.526;19.672;2023-03-01T03:43:22;120.00;;;51.85;;
61907;SDS011;47864;52.526;19.672;2023-03-01T03:45:24;105.47;;;48.90;;
61907;SDS011;47864;52.526;19.672;2023-03-01T03:47:26;105.93;;;50.17;;
61907;SDS011;47864;52.526;19.672;2023-03-01T03:49:27;93.22;;;46.70;;
61907;SDS011;47864;52.526;19.672;2023-03-01T03:51:29;98.55;;;46.88;;
61907;SDS011;47864;52.526;19.672;2023-03-01T03:53:30;100.32;;;48.88;;
61907;SDS011;47864;52.526;19.672;2023-03-01T03:55:33;92.55;;;44.20;;
61907;SDS011;47864;52.526;19.672;2023-03-01T03:57:35;88.60;;;43.83;;
61907;SDS011;47864;52.526;19.672;2023-03-01T03:59:37;95.18;;;46.15;;
61907;SDS011;47864;52.526;19.672;2023-03-01T04:01:39;89.18;;;45.20;;
61907;SDS011;47864;52.526;19.672;2023-03-01T04:03:40;93.97;;;46.05;;
61907;SDS011;47864;52.526;19.672;2023-03-01T04:05:42;88.35;;;45.30;;
61907;SDS011;47864;52.526;19.672;2023-03-01T04:07:44;95.88;;;46.88;;
61907;SDS011;47864;52.526;19.672;2023-03-01T04:09:46;99.78;;;49.17;;
61907;SDS011;47864;52.526;19.672;2023-03-01T04:11:47;103.00;;;50.33;;
61907;SDS011;47864;52.526;19.672;2023-03-01T04:13:49;96.22;;;47.50;;
61907;SDS011;47864;52.526;19.672;2023-03-01T04:15:51;103.70;;;47.20;;
61907;SDS011;47864;52.526;19.672;2023-03-01T04:17:54;192.25;;;79.10;;
61907;SDS011;47864;52.526;19.672;2023-03-01T04:19:56;161.50;;;67.75;;
61907;SDS011;47864;52.526;19.672;2023-03-01T04:21:58;146.82;;;68.50;;
61907;SDS011;47864;52.526;19.672;2023-03-01T04:23:59;159.55;;;74.18;;
61907;SDS011;47864;52.526;19.672;2023-03-01T04:26:01;148.18;;;65.68;;
61907;SDS011;47864;52.526;19.672;2023-03-01T04:28:02;162.75;;;70.22;;
61907;SDS011;47864;52.526;19.672;2023-03-01T04:30:04;151.57;;;66.85;;
61907;SDS011;47864;52.526;19.672;2023-03-01T04:32:06;252.65;;;106.68;;
61907;SDS011;47864;52.526;19.672;2023-03-01T04:34:07;253.15;;;107.05;;
61907;SDS011;47864;52.526;19.672;2023-03-01T04:36:09;338.73;;;117.07;;
61907;SDS011;47864;52.526;19.672;2023-03-01T04:38:12;320.75;;;115.88;;
61907;SDS011;47864;52.526;19.672;2023-03-01T04:40:13;275.10;;;107.50;;
61907;SDS011;47864;52.526;19.672;2023-03-01T04:42:15;567.97;;;227.50;;
61907;SDS011;47864;52.526;19.672;2023-03-01T04:44:17;670.78;;;259.80;;
61907;SDS011;47864;52.526;19.672;2023-03-01T04:46:19;560.53;;;213.77;;
61907;SDS011;47864;52.526;19.672;2023-03-01T04:48:21;397.15;;;171.20;;
61907;SDS011;47864;52.526;19.672;2023-03-01T04:50:23;225.60;;;95.90;;
61907;SDS011;47864;52.526;19.672;2023-03-01T04:52:25;269.42;;;128.05;;
61907;SDS011;47864;52.526;19.672;2023-03-01T04:54:27;123.72;;;58.97;;
61907;SDS011;47864;52.526;19.672;2023-03-01T04:56:29;303.58;;;99.22;;
61907;SDS011;47864;52.526;19.672;2023-03-01T04:58:31;105.78;;;47.80;;
61907;SDS011;47864;52.526;19.672;2023-03-01T05:00:32;102.05;;;50.22;;
61907;SDS011;47864;52.526;19.672;2023-03-01T05:02:34;122.60;;;61.70;;
61907;SDS011;47864;52.526;19.672;2023-03-01T05:04:35;117.57;;;63.22;;
61907;SDS011;47864;52.526;19.672;2023-03-01T05:06:37;109.85;;;55.05;;
61907;SDS011;47864;52.526;19.672;2023-03-01T05:08:39;110.32;;;57.38;;
61907;SDS011;47864;52.526;19.672;2023-03-01T05:10:42;116.35;;;62.38;;
61907;SDS011;47864;52.526;19.672;2023-03-01T05:12:45;143.40;;;69.38;;
61907;SDS011;47864;52.526;19.672;2023-03-01T05:14:47;327.27;;;138.02;;
61907;SDS011;47864;52.526;19.672;2023-03-01T05:16:48;233.02;;;103.85;;
61907;SDS011;47864;52.526;19.672;2023-03-01T05:18:50;106.38;;;50.63;;
61907;SDS011;47864;52.526;19.672;2023-03-01T05:20:52;114.32;;;54.05;;
61907;SDS011;47864;52.526;19.672;2023-03-01T05:22:58;112.10;;;58.55;;
61907;SDS011;47864;52.526;19.672;2023-03-01T05:25:01;92.47;;;48.30;;
61907;SDS011;47864;52.526;19.672;2023-03-01T05:27:03;76.90;;;41.30;;
61907;SDS011;47864;52.526;19.672;2023-03-01T05:29:04;77.75;;;41.00;;
61907;SDS011;47864;52.526;19.672;2023-03-01T05:31:06;86.55;;;43.97;;
61907;SDS011;47864;52.526;19.672;2023-03-01T05:33:08;100.38;;;49.65;;
61907;SDS011;47864;52.526;19.672;2023-03-01T05:35:11;98.95;;;53.53;;
61907;SDS011;47864;52.526;19.672;2023-03-01T05:39:15;121.57;;;61.95;;
61907;SDS011;47864;52.526;19.672;2023-03-01T05:41:17;119.00;;;61.83;;
61907;SDS011;47864;52.526;19.672;2023-03-01T05:43:18;126.35;;;59.75;;
61907;SDS011;47864;52.526;19.672;2023-03-01T05:45:20;102.80;;;52.25;;
61907;SDS011;47864;52.526;19.672;2023-03-01T05:47:22;86.00;;;44.60;;
61907;SDS011;47864;52.526;19.672;2023-03-01T05:49:23;92.97;;;48.88;;
61907;SDS011;47864;52.526;19.672;2023-03-01T05:51:25;97.40;;;49.15;;
61907;SDS011;47864;52.526;19.672;2023-03-01T05:53:27;99.32;;;50.78;;
61907;SDS011;47864;52.526;19.672;2023-03-01T05:55:29;112.72;;;53.20;;
61907;SDS011;47864;52.526;19.672;2023-03-01T05:57:31;110.85;;;56.22;;
61907;SDS011;47864;52.526;19.672;2023-03-01T05:59:32;94.07;;;48.97;;
61907;SDS011;47864;52.526;19.672;2023-03-01T06:01:35;74.13;;;40.38;;
61907;SDS011;47864;52.526;19.672;2023-03-01T06:03:37;70.82;;;38.55;;
61907;SDS011;47864;52.526;19.672;2023-03-01T06:05:39;82.45;;;41.50;;
61907;SDS011;47864;52.526;19.672;2023-03-01T06:07:41;92.40;;;46.57;;
61907;SDS011;47864;52.526;19.672;2023-03-01T06:09:42;144.38;;;64.13;;
61907;SDS011;47864;52.526;19.672;2023-03-01T06:11:44;170.85;;;75.35;;
61907;SDS011;47864;52.526;19.672;2023-03-01T06:13:45;133.38;;;59.25;;
61907;SDS011;47864;52.526;19.672;2023-03-01T06:15:47;124.22;;;59.55;;
61907;SDS011;47864;52.526;19.672;2023-03-01T06:17:49;129.07;;;63.55;;
61907;SDS011;47864;52.526;19.672;2023-03-01T06:19:51;103.75;;;50.88;;
61907;SDS011;47864;52.526;19.672;2023-03-01T06:21:53;93.95;;;45.55;;
61907;SDS011;47864;52.526;19.672;2023-03-01T06:23:54;98.82;;;50.65;;
61907;SDS011;47864;52.526;19.672;2023-03-01T06:25:55;91.47;;;46.20;;
61907;SDS011;47864;52.526;19.672;2023-03-01T06:27:57;91.15;;;48.10;;
61907;SDS011;47864;52.526;19.672;2023-03-01T06:29:58;84.00;;;45.08;;
61907;SDS011;47864;52.526;19.672;2023-03-01T06:32:00;72.72;;;40.80;;
61907;SDS011;47864;52.526;19.672;2023-03-01T06:34:01;81.18;;;42.40;;
61907;SDS011;47864;52.526;19.672;2023-03-01T06:36:03;75.45;;;41.20;;
61907;SDS011;47864;52.526;19.672;2023-03-01T06:38:05;72.57;;;38.30;;
61907;SDS011;47864;52.526;19.672;2023-03-01T06:40:07;76.38;;;40.20;;
61907;SDS011;47864;52.526;19.672;2023-03-01T06:42:09;72.13;;;41.70;;
61907;SDS011;47864;52.526;19.672;2023-03-01T06:44:10;100.80;;;58.38;;
61907;SDS011;47864;52.526;19.672;2023-03-01T06:46:12;90.38;;;48.35;;
61907;SDS011;47864;52.526;19.672;2023-03-01T06:48:14;67.55;;;38.05;;
61907;SDS011;47864;52.526;19.672;2023-03-01T06:50:16;78.32;;;41.35;;
61907;SDS011;47864;52.526;19.672;2023-03-01T06:52:19;77.43;;;41.53;;
61907;SDS011;47864;52.526;19.672;2023-03-01T06:54:20;78.53;;;41.65;;
61907;SDS011;47864;52.526;19.672;2023-03-01T06:56:22;67.85;;;37.92;;
61907;SDS011;47864;52.526;19.672;2023-03-01T06:58:23;74.63;;;42.65;;
61907;SDS011;47864;52.526;19.672;2023-03-01T07:00:25;70.63;;;38.63;;
61907;SDS011;47864;52.526;19.672;2023-03-01T07:02:28;69.00;;;40.78;;
61907;SDS011;47864;52.526;19.672;2023-03-01T07:04:29;74.13;;;39.00;;
61907;SDS011;47864;52.526;19.672;2023-03-01T07:06:31;71.45;;;34.83;;
61907;SDS011;47864;52.526;19.672;2023-03-01T07:08:32;60.10;;;31.92;;
61907;SDS011;47864;52.526;19.672;2023-03-01T07:10:34;61.60;;;29.38;;
61907;SDS011;47864;52.526;19.672;2023-03-01T07:12:35;71.28;;;32.28;;
61907;SDS011;47864;52.526;19.672;2023-03-01T07:14:37;69.45;;;33.58;;
61907;SDS011;47864;52.526;19.672;2023-03-01T07:16:39;74.78;;;33.85;;
61907;SDS011;47864;52.526;19.672;2023-03-01T07:18:40;60.00;;;29.60;;
61907;SDS011;47864;52.526;19.672;2023-03-01T07:20:42;58.10;;;28.88;;
61907;SDS011;47864;52.526;19.672;2023-03-01T07:22:44;62.42;;;30.55;;
61907;SDS011;47864;52.526;19.672;2023-03-01T07:24:46;58.72;;;27.25;;
61907;SDS011;47864;52.526;19.672;2023-03-01T07:26:50;65.10;;;29.67;;
61907;SDS011;47864;52.526;19.672;2023-03-01T07:28:52;53.88;;;27.20;;
61907;SDS011;47864;52.526;19.672;2023-03-01T07:30:54;56.45;;;30.42;;
61907;SDS011;47864;52.526;19.672;2023-03-01T07:32:56;54.70;;;28.30;;
61907;SDS011;47864;52.526;19.672;2023-03-01T07:34:58;58.47;;;27.83;;
61907;SDS011;47864;52.526;19.672;2023-03-01T07:37:00;52.00;;;25.85;;
61907;SDS011;47864;52.526;19.672;2023-03-01T07:39:01;52.70;;;26.38;;
61907;SDS011;47864;52.526;19.672;2023-03-01T07:41:03;50.33;;;24.90;;
61907;SDS011;47864;52.526;19.672;2023-03-01T07:43:05;54.67;;;28.08;;
61907;SDS011;47864;52.526;19.672;2023-03-01T07:45:06;59.75;;;28.90;;
61907;SDS011;47864;52.526;19.672;2023-03-01T07:47:08;51.58;;;26.17;;
61907;SDS011;47864;52.526;19.672;2023-03-01T07:49:10;49.30;;;24.67;;
61907;SDS011;47864;52.526;19.672;2023-03-01T07:51:11;48.53;;;23.85;;
61907;SDS011;47864;52.526;19.672;2023-03-01T07:53:13;45.75;;;23.10;;
61907;SDS011;47864;52.526;19.672;2023-03-01T07:55:15;47.28;;;23.60;;
61907;SDS011;47864;52.526;19.672;2023-03-01T07:57:17;45.95;;;24.25;;
61907;SDS011;47864;52.526;19.672;2023-03-01T07:59:19;47.00;;;24.13;;
61907;SDS011;47864;52.526;19.672;2023-03-01T08:01:20;51.35;;;24.67;;
61907;SDS011;47864;52.526;19.672;2023-03-01T08:03:22;52.25;;;24.60;;
61907;SDS011;47864;52.526;19.672;2023-03-01T08:05:24;46.60;;;24.17;;
61907;SDS011;47864;52.526;19.672;2023-03-01T08:07:26;48.70;;;23.27;;
61907;SDS011;47864;52.526;19.672;2023-03-01T08:09:27;46.83;;;23.40;;
61907;SDS011;47864;52.526;19.672;2023-03-01T08:11:28;46.97;;;22.65;;
61907;SDS011;47864;52.526;19.672;2023-03-01T08:13:30;41.03;;;22.10;;
61907;SDS011;47864;52.526;19.672;2023-03-01T08:15:32;54.10;;;24.42;;
61907;SDS011;47864;52.526;19.672;2023-03-01T08:17:33;43.08;;;22.63;;
61907;SDS011;47864;52.526;19.672;2023-03-01T08:19:35;50.30;;;23.63;;
61907;SDS011;47864;52.526;19.672;2023-03-01T08:21:37;46.45;;;22.27;;
61907;SDS011;47864;52.526;19.672;2023-03-01T08:23:39;47.20;;;23.02;;
61907;SDS011;47864;52.526;19.672;2023-03-01T08:25:41;45.60;;;22.55;;
61907;SDS011;47864;52.526;19.672;2023-03-01T08:27:42;45.20;;;21.95;;
61907;SDS011;47864;52.526;19.672;2023-03-01T08:29:44;42.03;;;20.33;;
61907;SDS011;47864;52.526;19.672;2023-03-01T08:31:46;39.90;;;21.05;;
61907;SDS011;47864;52.526;19.672;2023-03-01T08:33:50;44.72;;;22.08;;
61907;SDS011;47864;52.526;19.672;2023-03-01T08:36:01;42.08;;;21.60;;
61907;SDS011;47864;52.526;19.672;2023-03-01T08:38:06;42.97;;;20.38;;
61907;SDS011;47864;52.526;19.672;2023-03-01T08:40:08;38.50;;;19.13;;
61907;SDS011;47864;52.526;19.672;2023-03-01T08:42:10;36.50;;;19.38;;
61907;SDS011;47864;52.526;19.672;2023-03-01T08:44:12;39.15;;;18.65;;
61907;SDS011;47864;52.526;19.672;2023-03-01T08:46:14;37.03;;;18.13;;
61907;SDS011;47864;52.526;19.672;2023-03-01T08:48:16;35.85;;;17.90;;
61907;SDS011;47864;52.526;19.672;2023-03-01T08:50:18;38.50;;;17.75;;
61907;SDS011;47864;52.526;19.672;2023-03-01T08:52:20;37.67;;;17.75;;
61907;SDS011;47864;52.526;19.672;2023-03-01T08:54:22;33.75;;;17.13;;
61907;SDS011;47864;52.526;19.672;2023-03-01T08:56:23;36.58;;;17.05;;
61907;SDS011;47864;52.526;19.672;2023-03-01T08:58:25;31.38;;;15.68;;
61907;SDS011;47864;52.526;19.672;2023-03-01T09:00:26;36.03;;;17.25;;
61907;SDS011;47864;52.526;19.672;2023-03-01T09:02:28;36.20;;;16.73;;
61907;SDS011;47864;52.526;19.672;2023-03-01T09:04:29;29.75;;;16.17;;
61907;SDS011;47864;52.526;19.672;2023-03-01T09:06:31;32.30;;;15.60;;
61907;SDS011;47864;52.526;19.672;2023-03-01T09:08:35;35.67;;;17.85;;
61907;SDS011;47864;52.526;19.672;2023-03-01T09:10:38;53.15;;;27.95;;
61907;SDS011;47864;52.526;19.672;2023-03-01T09:12:39;56.47;;;26.80;;
61907;SDS011;47864;52.526;19.672;2023-03-01T09:14:42;53.53;;;27.88;;
61907;SDS011;47864;52.526;19.672;2023-03-01T09:16:43;54.38;;;27.13;;
61907;SDS011;47864;52.526;19.672;2023-03-01T09:18:48;54.85;;;29.90;;
61907;SDS011;47864;52.526;19.672;2023-03-01T09:20:51;54.20;;;27.73;;
61907;SDS011;47864;52.526;19.672;2023-03-01T09:22:53;54.75;;;28.65;;
61907;SDS011;47864;52.526;19.672;2023-03-01T09:24:55;44.07;;;24.13;;
61907;SDS011;47864;52.526;19.672;2023-03-01T09:26:57;47.05;;;22.77;;
61907;SDS011;47864;52.526;19.672;2023-03-01T09:28:58;40.20;;;20.17;;
61907;SDS011;47864;52.526;19.672;2023-03-01T09:31:00;40.83;;;20.85;;
61907;SDS011;47864;52.526;19.672;2023-03-01T09:33:03;43.07;;;21.93;;
61907;SDS011;47864;52.526;19.672;2023-03-01T09:35:04;39.97;;;20.50;;
61907;SDS011;47864;52.526;19.672;2023-03-01T09:37:06;34.80;;;18.67;;
61907;SDS011;47864;52.526;19.672;2023-03-01T09:39:08;39.10;;;19.10;;
61907;SDS011;47864;52.526;19.672;2023-03-01T09:43:42;44.97;;;19.40;;
61907;SDS011;47864;52.526;19.672;2023-03-01T09:45:48;38.85;;;19.45;;
61907;SDS011;47864;52.526;19.672;2023-03-01T09:47:53;46.05;;;22.35;;
61907;SDS011;47864;52.526;19.672;2023-03-01T09:50:06;35.08;;;18.30;;
61907;SDS011;47864;52.526;19.672;2023-03-01T09:52:19;32.42;;;17.73;;
61907;SDS011;47864;52.526;19.672;2023-03-01T09:54:27;31.25;;;16.30;;
61907;SDS011;47864;52.526;19.672;2023-03-01T09:56:30;37.90;;;17.70;;
61907;SDS011;47864;52.526;19.672;2023-03-01T09:58:53;39.47;;;18.27;;
61907;SDS011;47864;52.526;19.672;2023-03-01T10:03:59;32.85;;;16.52;;
61907;SDS011;47864;52.526;19.672;2023-03-01T10:09:21;32.92;;;16.38;;
61907;SDS011;47864;52.526;19.672;2023-03-01T10:11:19;31.58;;;16.77;;
61907;SDS011;47864;52.526;19.672;2023-03-01T10:13:47;35.20;;;18.52;;
61907;SDS011;47864;52.526;19.672;2023-03-01T10:15:57;38.30;;;19.00;;
61907;SDS011;47864;52.526;19.672;2023-03-01T10:18:12;38.78;;;19.33;;
61907;SDS011;47864;52.526;19.672;2023-03-01T10:20:21;35.50;;;19.95;;
61907;SDS011;47864;52.526;19.672;2023-03-01T10:22:28;31.48;;;17.10;;
61907;SDS011;47864;52.526;19.672;2023-03-01T10:30:44;38.63;;;19.75;;
61907;SDS011;47864;52.526;19.672;2023-03-01T10:32:45;40.35;;;19.25;;
61907;SDS011;47864;52.526;19.672;2023-03-01T10:34:49;37.47;;;19.30;;
61907;SDS011;47864;52.526;19.672;2023-03-01T10:36:51;35.97;;;18.13;;
61907;SDS011;47864;52.526;19.672;2023-03-01T10:38:57;31.75;;;17.65;;
61907;SDS011;47864;52.526;19.672;2023-03-01T10:41:05;35.47;;;18.02;;
61907;SDS011;47864;52.526;19.672;2023-03-01T10:43:10;35.20;;;17.42;;
61907;SDS011;47864;52.526;19.672;2023-03-01T10:45:19;36.08;;;18.17;;
61907;SDS011;47864;52.526;19.672;2023-03-01T10:47:31;34.17;;;17.95;;
61907;SDS011;47864;52.526;19.672;2023-03-01T10:49:34;37.17;;;19.35;;
61907;SDS011;47864;52.526;19.672;2023-03-01T10:51:36;36.50;;;17.57;;
61907;SDS011;47864;52.526;19.672;2023-03-01T10:53:41;29.83;;;16.35;;
61907;SDS011;47864;52.526;19.672;2023-03-01T10:55:44;31.55;;;15.95;;
61907;SDS011;47864;52.526;19.672;2023-03-01T10:57:45;34.55;;;17.92;;
61907;SDS011;47864;52.526;19.672;2023-03-01T10:59:47;35.78;;;17.65;;
61907;SDS011;47864;52.526;19.672;2023-03-01T11:04:24;32.28;;;14.95;;
61907;SDS011;47864;52.526;19.672;2023-03-01T11:06:26;29.13;;;15.82;;
61907;SDS011;47864;52.526;19.672;2023-03-01T11:08:38;25.48;;;13.63;;
61907;SDS011;47864;52.526;19.672;2023-03-01T11:10:44;28.45;;;15.07;;
61907;SDS011;47864;52.526;19.672;2023-03-01T11:12:45;67.40;;;31.08;;
61907;SDS011;47864;52.526;19.672;2023-03-01T11:14:48;78.72;;;36.63;;
61907;SDS011;47864;52.526;19.672;2023-03-01T11:17:04;32.90;;;16.42;;
61907;SDS011;47864;52.526;19.672;2023-03-01T11:21:15;69.45;;;37.45;;
61907;SDS011;47864;52.526;19.672;2023-03-01T11:23:17;45.05;;;24.13;;
61907;SDS011;47864;52.526;19.672;2023-03-01T11:25:23;35.20;;;17.88;;
61907;SDS011;47864;52.526;19.672;2023-03-01T11:27:28;28.60;;;16.27;;
61907;SDS011;47864;52.526;19.672;2023-03-01T11:29:38;28.75;;;16.13;;
61907;SDS011;47864;52.526;19.672;2023-03-01T11:31:49;30.75;;;16.02;;
61907;SDS011;47864;52.526;19.672;2023-03-01T11:33:59;26.17;;;14.88;;
61907;SDS011;47864;52.526;19.672;2023-03-01T11:40:28;28.42;;;15.85;;
61907;SDS011;47864;52.526;19.672;2023-03-01T11:44:44;30.73;;;14.50;;
61907;SDS011;47864;52.526;19.672;2023-03-01T11:56:32;24.65;;;12.43;;
61907;SDS011;47864;52.526;19.672;2023-03-01T12:01:15;28.10;;;14.55;;
61907;SDS011;47864;52.526;19.672;2023-03-01T12:08:19;26.40;;;14.45;;
61907;SDS011;47864;52.526;19.672;2023-03-01T12:10:27;33.38;;;18.75;;
61907;SDS011;47864;52.526;19.672;2023-03-01T12:20:10;47.08;;;21.65;;
61907;SDS011;47864;52.526;19.672;2023-03-01T12:22:32;36.65;;;18.60;;
61907;SDS011;47864;52.526;19.672;2023-03-01T12:27:39;28.50;;;14.60;;
61907;SDS011;47864;52.526;19.672;2023-03-01T12:37:10;31.95;;;17.33;;
61907;SDS011;47864;52.526;19.672;2023-03-01T12:42:13;27.90;;;16.00;;
61907;SDS011;47864;52.526;19.672;2023-03-01T12:51:19;22.80;;;13.25;;
61907;SDS011;47864;52.526;19.672;2023-03-01T12:53:26;25.13;;;14.95;;
61907;SDS011;47864;52.526;19.672;2023-03-01T12:55:33;25.45;;;13.93;;
61907;SDS011;47864;52.526;19.672;2023-03-01T12:57:46;26.80;;;14.90;;
61907;SDS011;47864;52.526;19.672;2023-03-01T13:00:25;24.67;;;14.23;;
61907;SDS011;47864;52.526;19.672;2023-03-01T13:02:33;22.35;;;13.38;;
61907;SDS011;47864;52.526;19.672;2023-03-01T13:09:53;19.48;;;10.60;;
61907;SDS011;47864;52.526;19.672;2023-03-01T13:12:04;14.75;;;8.75;;
61907;SDS011;47864;52.526;19.672;2023-03-01T13:14:44;18.55;;;10.00;;